createdAt,value
2019-04-14T00:01:47.725Z,2.47
2019-04-14T00:04:20.433Z,2.21
2019-04-14T00:06:50.470Z,2.35
2019-04-14T00:09:20.650Z,2.31
2019-04-14T00:11:50.382Z,2.16
2019-04-14T00:14:20.665Z,2.00
2019-04-14T00:16:49.457Z,2.14
2019-04-14T00:19:18.119Z,2.07
2019-04-14T00:21:47.624Z,2.00
2019-04-14T00:24:18.341Z,1.76
2019-04-14T00:26:47.146Z,1.98
2019-04-14T00:29:15.818Z,1.81
2019-04-14T00:31:45.875Z,1.71
2019-04-14T00:34:35.330Z,1.55
2019-04-14T00:37:29.504Z,1.46
2019-04-14T00:40:02.585Z,1.56
2019-04-14T00:42:40.883Z,1.77
2019-04-14T00:45:17.653Z,1.68
2019-04-14T00:48:01.093Z,1.63
2019-04-14T00:50:26.111Z,1.91
2019-04-14T00:52:56.665Z,1.98
2019-04-14T00:55:31.487Z,1.82
2019-04-14T00:58:04.259Z,1.87
2019-04-14T01:00:35.102Z,1.82
2019-04-14T01:03:04.821Z,1.78
2019-04-14T01:05:54.778Z,1.75
2019-04-14T01:08:24.832Z,1.62
2019-04-14T01:10:54.015Z,1.60
2019-04-14T01:13:22.740Z,1.67
2019-04-14T01:15:58.616Z,1.53
2019-04-14T01:18:21.795Z,1.48
2019-04-14T01:20:51.415Z,1.30
2019-04-14T01:23:21.443Z,1.30
2019-04-14T01:25:50.328Z,1.19
2019-04-14T01:28:20.113Z,1.21
2019-04-14T01:30:50.034Z,1.25
2019-04-14T01:33:18.869Z,1.25
2019-04-14T01:35:48.796Z,1.07
2019-04-14T01:38:17.646Z,1.08
2019-04-14T01:40:46.691Z,0.94
2019-04-14T01:43:16.657Z,1.07
2019-04-14T01:45:58.188Z,1.07
2019-04-14T01:48:17.058Z,1.12
2019-04-14T01:51:11.326Z,0.78
2019-04-14T01:54:01.802Z,0.57
2019-04-14T01:56:55.915Z,0.61
2019-04-14T01:59:24.645Z,0.68
2019-04-14T02:01:54.294Z,0.52
2019-04-14T02:04:22.985Z,0.60
2019-04-14T02:06:52.727Z,0.41
2019-04-14T02:09:21.509Z,0.24
2019-04-14T02:11:51.025Z,0.27
2019-04-14T02:14:21.097Z,0.27
2019-04-14T02:16:54.137Z,0.26
2019-04-14T02:19:20.309Z,0.42
2019-04-14T02:21:49.891Z,0.45
2019-04-14T02:24:19.896Z,0.55
2019-04-14T02:26:48.656Z,0.49
2019-04-14T02:29:17.317Z,0.43
2019-04-14T02:32:23.663Z,0.40
2019-04-14T02:37:19.532Z,0.16
2019-04-14T02:39:48.218Z,0.04
2019-04-14T02:44:43.592Z,-0.03
2019-04-14T02:47:36.338Z,-0.25
2019-04-14T02:49:50.599Z,-0.39
2019-04-14T02:54:51.643Z,-0.31
2019-04-14T02:57:17.338Z,-0.28
2019-04-14T03:04:49.144Z,-0.55
2019-04-14T03:07:21.858Z,-0.40
2019-04-14T03:09:48.435Z,-0.36
2019-04-14T03:12:19.250Z,-0.47
2019-04-14T03:17:31.040Z,-0.49
2019-04-14T03:20:14.096Z,-0.54
2019-04-14T03:23:13.840Z,-0.62
2019-04-14T03:25:38.784Z,-0.57
2019-04-14T03:28:28.316Z,-0.49
2019-04-14T03:31:51.786Z,-0.56
2019-04-14T03:43:41.396Z,-0.76
2019-04-14T03:51:28.083Z,-1.20
2019-04-14T03:53:47.247Z,-0.97
2019-04-14T03:56:29.653Z,-1.18
2019-04-14T03:58:58.319Z,-1.35
2019-04-14T04:01:27.984Z,-1.39
2019-04-14T04:03:56.736Z,-1.19
2019-04-14T04:06:25.389Z,-1.12
2019-04-14T04:08:55.210Z,-1.25
2019-04-14T04:11:23.919Z,-1.35
2019-04-14T04:13:52.602Z,-1.07
2019-04-14T04:16:29.006Z,-0.93
2019-04-14T04:19:07.390Z,-1.04
2019-04-14T04:21:50.936Z,-1.22
2019-04-14T04:24:45.481Z,-1.51
2019-04-14T04:27:33.320Z,-1.84
2019-04-14T04:30:08.166Z,-2.20
2019-04-14T04:32:45.050Z,-2.20
2019-04-14T04:35:28.140Z,-1.94
2019-04-14T04:38:09.538Z,-1.58
2019-04-14T04:40:39.634Z,-1.33
2019-04-14T04:43:08.397Z,-1.23
2019-04-14T04:45:37.054Z,-1.13
2019-04-14T04:48:06.700Z,-1.07
2019-04-14T04:50:36.731Z,-1.07
2019-04-14T04:53:06.848Z,-0.97
2019-04-14T04:55:35.658Z,-0.76
2019-04-14T04:58:05.555Z,-0.59
2019-04-14T05:00:35.295Z,-0.53
2019-04-14T05:03:04.081Z,-0.43
2019-04-14T05:06:09.316Z,-0.37
2019-04-14T05:08:39.712Z,-0.39
2019-04-14T05:11:31.636Z,-0.25
2019-04-14T05:14:02.850Z,-0.17
2019-04-14T05:16:32.448Z,-0.08
2019-04-14T05:19:15.907Z,0.03
2019-04-14T05:21:32.150Z,0.13
2019-04-14T05:24:00.934Z,0.17
2019-04-14T05:26:30.815Z,0.23
2019-04-14T05:28:59.683Z,0.32
2019-04-14T05:31:29.406Z,0.42
2019-04-14T05:33:59.943Z,0.52
2019-04-14T05:36:28.689Z,0.60
2019-04-14T05:38:58.123Z,0.62
2019-04-14T05:41:26.806Z,0.65
2019-04-14T05:43:58.234Z,0.74
2019-04-14T05:46:25.880Z,0.79
2019-04-14T05:48:55.664Z,0.78
2019-04-14T05:51:24.843Z,0.82
2019-04-14T05:53:54.508Z,0.75
2019-04-14T05:56:23.253Z,0.87
2019-04-14T05:58:51.887Z,0.99
2019-04-14T06:01:20.568Z,1.04
2019-04-14T06:03:49.677Z,1.23
2019-04-14T06:06:18.404Z,1.24
2019-04-14T06:08:47.063Z,1.27
2019-04-14T06:11:15.725Z,1.24
2019-04-14T06:13:44.410Z,1.45
2019-04-14T06:16:13.118Z,1.73
2019-04-14T06:18:41.778Z,1.75
2019-04-14T06:21:10.436Z,1.94
2019-04-14T06:23:41.288Z,2.08
2019-04-14T06:26:09.952Z,2.13
2019-04-14T06:28:38.610Z,2.15
2019-04-14T06:31:38.299Z,2.27
2019-04-14T06:34:17.358Z,2.26
2019-04-14T06:37:03.962Z,2.04
2019-04-14T06:39:35.101Z,1.94
2019-04-14T06:42:04.083Z,1.93
2019-04-14T06:44:32.761Z,1.90
2019-04-14T06:47:01.428Z,1.90
2019-04-14T06:49:30.081Z,1.93
2019-04-14T06:51:58.834Z,2.03
2019-04-14T06:54:27.512Z,2.06
2019-04-14T06:56:56.201Z,2.14
2019-04-14T06:59:24.867Z,2.36
2019-04-14T07:01:53.527Z,2.54
2019-04-14T07:04:22.213Z,2.83
2019-04-14T07:06:51.479Z,3.08
2019-04-14T07:09:20.306Z,3.31
2019-04-14T07:11:49.005Z,3.37
2019-04-14T07:14:17.661Z,3.46
2019-04-14T07:16:46.371Z,3.91
2019-04-14T07:19:15.042Z,4.01
2019-04-14T07:21:43.680Z,4.10
2019-04-14T07:24:12.369Z,4.37
2019-04-14T07:26:41.187Z,4.72
2019-04-14T07:29:09.856Z,4.95
2019-04-14T07:32:06.598Z,5.05
2019-04-14T07:34:54.788Z,5.29
2019-04-14T07:37:45.536Z,5.30
2019-04-14T07:40:24.158Z,5.58
2019-04-14T07:42:59.025Z,5.97
2019-04-14T07:45:45.806Z,6.05
2019-04-14T07:48:34.695Z,6.37
2019-04-14T07:51:23.625Z,6.55
2019-04-14T07:54:11.358Z,6.33
2019-04-14T07:56:49.876Z,6.60
2019-04-14T07:59:31.702Z,6.59
2019-04-14T08:02:06.090Z,6.56
2019-04-14T08:04:37.778Z,6.58
2019-04-14T08:07:06.510Z,6.43
2019-04-14T08:09:35.164Z,6.40
2019-04-14T08:12:03.859Z,6.38
2019-04-14T08:14:32.542Z,6.60
2019-04-14T08:17:01.246Z,6.46
2019-04-14T08:19:29.897Z,6.72
2019-04-14T08:21:58.552Z,6.99
2019-04-14T08:24:27.242Z,7.00
2019-04-14T08:26:55.978Z,6.71
2019-04-14T08:29:24.634Z,6.49
2019-04-14T08:31:53.338Z,6.82
2019-04-14T08:34:21.984Z,7.12
2019-04-14T08:36:50.711Z,7.27
2019-04-14T08:39:19.392Z,7.36
2019-04-14T08:42:05.370Z,7.15
2019-04-14T08:44:53.232Z,7.53
2019-04-14T08:47:53.276Z,7.86
2019-04-14T08:50:38.924Z,8.33
2019-04-14T08:53:02.682Z,8.47
2019-04-14T08:55:40.081Z,8.88
2019-04-14T08:58:30.826Z,9.14
2019-04-14T09:01:04.811Z,9.73
2019-04-14T09:04:07.579Z,9.87
2019-04-14T09:06:53.169Z,9.98
2019-04-14T09:09:25.835Z,9.81
2019-04-14T09:11:58.228Z,9.50
2019-04-14T09:14:26.950Z,9.43
2019-04-14T09:16:55.627Z,9.34
2019-04-14T09:19:24.583Z,9.62
2019-04-14T09:21:53.276Z,10.20
2019-04-14T09:24:21.952Z,11.51
2019-04-14T09:26:50.611Z,11.54
2019-04-14T09:29:19.297Z,12.12
2019-04-14T09:31:48.002Z,13.56
2019-04-14T09:34:16.671Z,14.93
2019-04-14T09:36:45.327Z,15.01
2019-04-14T09:39:14.024Z,15.52
2019-04-14T09:41:42.696Z,15.38
2019-04-14T09:44:11.360Z,15.55
2019-04-14T09:46:40.054Z,14.37
2019-04-14T09:49:08.716Z,13.97
2019-04-14T09:51:37.381Z,13.09
2019-04-14T09:54:06.155Z,11.56
2019-04-14T09:56:34.842Z,10.62
2019-04-14T09:59:03.847Z,10.79
2019-04-14T10:01:32.624Z,11.51
2019-04-14T10:04:01.284Z,13.04
2019-04-14T10:06:30.030Z,13.45
2019-04-14T10:08:58.724Z,13.65
2019-04-14T10:11:27.484Z,13.94
2019-04-14T10:13:56.152Z,12.50
2019-04-14T10:16:24.839Z,11.70
2019-04-14T10:18:53.560Z,10.74
2019-04-14T10:21:22.228Z,10.75
2019-04-14T10:23:50.897Z,10.01
2019-04-14T10:26:19.597Z,10.51
2019-04-14T10:28:50.749Z,11.30
2019-04-14T10:31:19.046Z,11.56
2019-04-14T10:33:47.741Z,11.48
2019-04-14T10:36:16.415Z,11.62
2019-04-14T10:38:45.110Z,11.49
2019-04-14T10:41:13.774Z,11.41
2019-04-14T10:43:42.445Z,10.82
2019-04-14T10:46:11.139Z,10.66
2019-04-14T10:48:39.818Z,10.72
2019-04-14T10:51:08.512Z,10.18
2019-04-14T10:53:37.178Z,9.78
2019-04-14T10:56:05.933Z,9.43
2019-04-14T10:58:34.608Z,10.23
2019-04-14T11:01:03.271Z,10.88
2019-04-14T11:03:31.982Z,11.07
2019-04-14T11:06:06.050Z,11.44
2019-04-14T11:08:34.752Z,11.46
2019-04-14T11:11:03.535Z,11.02
2019-04-14T11:13:32.198Z,10.90
2019-04-14T11:16:00.956Z,11.17
2019-04-14T11:18:29.619Z,10.56
2019-04-14T11:20:58.281Z,10.88
2019-04-14T11:23:26.970Z,10.84
2019-04-14T11:25:55.638Z,10.78
2019-04-14T11:28:24.297Z,10.77
2019-04-14T11:30:52.985Z,11.83
2019-04-14T11:33:46.975Z,12.31
2019-04-14T11:36:33.552Z,12.58
2019-04-14T11:39:08.159Z,12.03
2019-04-14T11:41:36.865Z,11.13
2019-04-14T11:44:05.760Z,11.53
2019-04-14T11:46:34.375Z,11.12
2019-04-14T11:49:03.149Z,11.88
2019-04-14T11:51:31.815Z,12.36
2019-04-14T11:54:00.686Z,12.19
2019-04-14T11:56:29.411Z,10.71
2019-04-14T11:58:58.075Z,11.21
2019-04-14T12:01:44.590Z,10.34
2019-04-14T12:04:24.406Z,11.28
2019-04-14T12:06:59.707Z,11.18
2019-04-14T12:09:31.240Z,10.56
2019-04-14T12:11:59.933Z,10.71
2019-04-14T12:14:28.937Z,10.83
2019-04-14T12:16:57.633Z,10.70
2019-04-14T12:19:26.329Z,10.28
2019-04-14T12:22:07.445Z,10.20
2019-04-14T12:24:25.409Z,10.62
2019-04-14T12:26:54.073Z,9.75
2019-04-14T12:29:23.645Z,9.63
2019-04-14T12:31:53.078Z,10.11
2019-04-14T12:34:21.854Z,9.66
2019-04-14T12:36:50.504Z,9.52
2019-04-14T12:39:23.265Z,9.48
2019-04-14T12:42:11.494Z,9.37
2019-04-14T12:44:52.875Z,9.03
2019-04-14T12:47:41.441Z,8.74
2019-04-14T12:50:18.078Z,8.71
2019-04-14T12:52:46.761Z,8.40
2019-04-14T12:55:15.514Z,8.70
2019-04-14T12:57:53.164Z,8.56
2019-04-14T13:00:50.071Z,8.08
2019-04-14T13:03:19.035Z,7.97
2019-04-14T13:05:47.693Z,8.08
2019-04-14T13:08:16.380Z,8.16
2019-04-14T13:10:45.482Z,8.14
2019-04-14T13:13:14.150Z,8.32
2019-04-14T13:15:42.832Z,8.43
2019-04-14T13:18:11.517Z,8.39
2019-04-14T13:20:40.197Z,7.97
2019-04-14T13:23:08.858Z,7.70
2019-04-14T13:25:37.556Z,7.63
2019-04-14T13:28:06.304Z,7.66
2019-04-14T13:30:37.427Z,7.95
2019-04-14T13:33:06.202Z,7.84
2019-04-14T13:35:34.867Z,7.59
2019-04-14T13:38:03.598Z,8.16
2019-04-14T13:40:32.290Z,8.26
2019-04-14T13:43:01.273Z,8.20
2019-04-14T13:45:29.938Z,8.22
2019-04-14T13:47:58.607Z,8.27
2019-04-14T13:50:27.355Z,8.65
2019-04-14T13:52:56.021Z,8.97
2019-04-14T13:55:24.701Z,8.84
2019-04-14T13:57:53.402Z,8.33
2019-04-14T14:00:23.029Z,7.78
2019-04-14T14:02:51.701Z,7.81
2019-04-14T14:05:20.394Z,8.05
2019-04-14T14:07:49.065Z,8.22
2019-04-14T14:10:18.202Z,8.44
2019-04-14T14:13:06.013Z,8.85
2019-04-14T14:16:12.255Z,8.68
2019-04-14T14:18:52.474Z,8.70
2019-04-14T14:21:45.841Z,7.84
2019-04-14T14:24:51.699Z,7.37
2019-04-14T14:27:20.384Z,7.34
2019-04-14T14:29:49.047Z,7.33
2019-04-14T14:32:24.174Z,7.49
2019-04-14T14:34:52.834Z,7.38
2019-04-14T14:37:21.524Z,7.62
2019-04-14T14:39:50.211Z,7.73
2019-04-14T14:42:18.872Z,7.38
2019-04-14T14:44:52.934Z,7.21
2019-04-14T14:47:24.473Z,7.13
2019-04-14T14:50:11.202Z,6.71
2019-04-14T14:52:40.892Z,6.72
2019-04-14T14:55:09.630Z,6.66
2019-04-14T14:57:38.390Z,6.56
2019-04-14T15:00:13.445Z,6.65
2019-04-14T15:02:42.136Z,6.74
2019-04-14T15:05:10.873Z,6.45
2019-04-14T15:07:39.536Z,6.45
2019-04-14T15:10:08.381Z,6.47
2019-04-14T15:12:37.043Z,6.11
2019-04-14T15:15:06.314Z,6.09
2019-04-14T15:17:35.009Z,6.29
2019-04-14T15:20:03.983Z,6.31
2019-04-14T15:22:32.670Z,6.10
2019-04-14T15:25:01.356Z,6.17
2019-04-14T15:27:30.093Z,6.33
2019-04-14T15:29:58.761Z,6.45
2019-04-14T15:32:27.529Z,6.29
2019-04-14T15:34:57.043Z,6.38
2019-04-14T15:37:25.736Z,6.38
2019-04-14T15:39:54.432Z,6.68
2019-04-14T15:42:23.094Z,6.71
2019-04-14T15:44:51.747Z,6.66
2019-04-14T15:47:20.523Z,7.04
2019-04-14T15:49:49.174Z,7.24
2019-04-14T15:52:17.908Z,7.47
2019-04-14T15:54:46.597Z,6.99
2019-04-14T15:57:33.221Z,6.90
2019-04-14T16:00:12.677Z,7.01
2019-04-14T16:02:46.967Z,7.08
2019-04-14T16:05:22.637Z,7.34
2019-04-14T16:07:58.153Z,6.74
2019-04-14T16:10:45.880Z,6.94
2019-04-14T16:13:36.667Z,6.91
2019-04-14T16:16:30.649Z,6.55
2019-04-14T16:19:04.271Z,6.10
2019-04-14T16:21:32.989Z,5.82
2019-04-14T16:24:01.654Z,5.91
2019-04-14T16:26:39.649Z,5.79
2019-04-14T16:29:31.803Z,5.67
2019-04-14T16:32:20.068Z,5.93
2019-04-14T16:34:54.966Z,6.09
2019-04-14T16:37:23.640Z,6.15
2019-04-14T16:39:52.320Z,5.76
2019-04-14T16:42:21.008Z,5.68
2019-04-14T16:44:49.675Z,5.38
2019-04-14T16:47:18.403Z,5.47
2019-04-14T16:49:47.164Z,5.39
2019-04-14T16:52:33.559Z,5.43
2019-04-14T16:55:14.777Z,5.28
2019-04-14T16:57:56.077Z,5.25
2019-04-14T17:00:29.555Z,5.18
2019-04-14T17:02:58.223Z,5.14
2019-04-14T17:05:26.909Z,5.12
2019-04-14T17:07:55.561Z,5.09
2019-04-14T17:10:24.240Z,5.06
2019-04-14T17:12:52.913Z,5.12
2019-04-14T17:15:36.091Z,5.07
2019-04-14T17:18:17.193Z,5.00
2019-04-14T17:20:54.182Z,4.96
2019-04-14T17:23:34.269Z,5.02
2019-04-14T17:26:07.805Z,5.04
2019-04-14T17:28:54.553Z,4.88
2019-04-14T17:31:45.274Z,4.90
2019-04-14T17:34:17.959Z,4.91
2019-04-14T17:37:11.453Z,4.88
2019-04-14T17:39:45.311Z,4.82
2019-04-14T17:42:26.976Z,4.75
2019-04-14T17:45:27.140Z,4.76
2019-04-14T17:48:00.317Z,4.76
2019-04-14T17:50:47.315Z,4.79
2019-04-14T17:53:34.958Z,4.84
2019-04-14T17:56:09.921Z,4.95
2019-04-14T17:58:48.112Z,4.82
2019-04-14T18:01:29.511Z,4.87
2019-04-14T18:04:01.362Z,4.88
2019-04-14T18:06:37.547Z,4.84
2019-04-14T18:09:20.539Z,4.81
2019-04-14T18:12:04.718Z,4.90
2019-04-14T18:14:44.234Z,5.01
2019-04-14T18:17:22.672Z,4.97
2019-04-14T18:19:55.467Z,4.92
2019-04-14T18:22:24.148Z,4.85
2019-04-14T18:24:52.807Z,4.92
2019-04-14T18:27:21.493Z,4.89
2019-04-14T18:30:06.512Z,4.82
2019-04-14T18:32:40.167Z,4.90
2019-04-14T18:35:16.350Z,4.89
2019-04-14T18:38:16.327Z,4.96
2019-04-14T18:40:55.203Z,4.85
2019-04-14T18:43:35.054Z,4.92
2019-04-14T18:46:28.800Z,4.88
2019-04-14T18:49:02.497Z,5.01
2019-04-14T18:51:41.349Z,5.02
2019-04-14T18:54:23.432Z,5.00
2019-04-14T18:57:11.165Z,4.90
2019-04-14T18:59:45.689Z,4.86
2019-04-14T19:02:16.137Z,4.84
2019-04-14T19:04:44.828Z,4.93
2019-04-14T19:07:13.487Z,4.96
2019-04-14T19:09:42.147Z,5.05
2019-04-14T19:12:28.861Z,5.01
2019-04-14T19:15:05.508Z,5.03
2019-04-14T19:17:46.570Z,5.03
2019-04-14T19:20:16.357Z,5.12
2019-04-14T19:22:45.040Z,5.12
2019-04-14T19:25:13.826Z,5.14
2019-04-14T19:27:42.490Z,5.21
2019-04-14T19:30:11.532Z,5.26
2019-04-14T19:32:40.231Z,5.31
2019-04-14T19:35:08.965Z,5.19
2019-04-14T19:37:37.644Z,5.21
2019-04-14T19:40:06.619Z,5.31
2019-04-14T19:42:35.286Z,5.27
2019-04-14T19:45:04.081Z,5.27
2019-04-14T19:47:32.769Z,5.31
2019-04-14T19:50:01.432Z,5.39
2019-04-14T19:52:30.088Z,5.38
2019-04-14T19:54:58.778Z,5.31
2019-04-14T19:57:27.436Z,5.29
2019-04-14T19:59:56.128Z,5.26
2019-04-14T20:02:24.805Z,5.34
2019-04-14T20:04:53.460Z,5.38
2019-04-14T20:07:22.150Z,5.18
2019-04-14T20:09:50.815Z,5.22
2019-04-14T20:12:19.549Z,5.31
2019-04-14T20:14:48.226Z,5.32
2019-04-14T20:17:42.006Z,5.28
2019-04-14T20:20:21.492Z,5.28
2019-04-14T20:23:08.282Z,5.32
2019-04-14T20:26:03.620Z,5.31
2019-04-14T20:28:46.162Z,5.38
2019-04-14T20:31:46.210Z,5.38
2019-04-14T20:34:14.954Z,5.38
2019-04-14T20:36:43.643Z,5.28
2019-04-14T20:39:15.617Z,5.22
2019-04-14T20:41:44.349Z,5.39
2019-04-14T20:44:13.172Z,5.43
2019-04-14T20:46:41.901Z,5.46
2019-04-14T20:49:10.641Z,5.33
2019-04-14T20:51:39.319Z,5.44
2019-04-14T20:54:08.048Z,5.45
2019-04-14T20:56:36.807Z,5.39
2019-04-14T20:59:05.467Z,5.30
2019-04-14T21:01:35.914Z,5.44
2019-04-14T21:04:17.378Z,5.49
2019-04-14T21:07:11.097Z,5.48
2019-04-14T21:09:44.568Z,5.49
2019-04-14T21:12:21.698Z,5.50
2019-04-14T21:14:54.870Z,5.64
2019-04-14T21:17:44.752Z,5.58
2019-04-14T21:20:24.487Z,5.57
2019-04-14T21:23:07.541Z,5.51
2019-04-14T21:26:00.768Z,5.59
2019-04-14T21:28:29.907Z,5.58
2019-04-14T21:31:07.956Z,5.54
2019-04-14T21:33:44.694Z,5.57
2019-04-14T21:36:21.245Z,5.48
2019-04-14T21:39:11.347Z,5.54
2019-04-14T21:41:40.110Z,5.51
2019-04-14T21:44:08.766Z,5.63
2019-04-14T21:46:37.458Z,5.72
2019-04-14T21:49:06.195Z,5.65
2019-04-14T21:51:57.012Z,5.72
2019-04-14T21:54:25.619Z,5.78
2019-04-14T21:57:12.021Z,5.74
2019-04-14T21:59:56.877Z,5.69
2019-04-14T22:02:43.211Z,5.75
2019-04-14T22:05:21.372Z,5.74
2019-04-14T22:07:59.910Z,5.65
2019-04-14T22:10:38.700Z,5.73
2019-04-14T22:13:07.471Z,5.77
2019-04-14T22:15:36.152Z,5.77
2019-04-14T22:18:04.886Z,5.76
2019-04-14T22:20:33.648Z,5.72
2019-04-14T22:23:03.969Z,5.75
2019-04-14T22:25:32.687Z,5.75
2019-04-14T22:28:01.495Z,5.70
2019-04-14T22:30:30.231Z,5.70
2019-04-14T22:32:58.916Z,5.68
2019-04-14T22:35:27.572Z,5.67
2019-04-14T22:37:56.247Z,5.65
2019-04-14T22:40:24.989Z,5.62
2019-04-14T22:42:53.673Z,5.56
2019-04-14T22:45:22.430Z,5.57
2019-04-14T22:47:51.085Z,5.54
2019-04-14T22:50:19.740Z,5.55
2019-04-14T22:52:48.416Z,5.64
2019-04-14T22:55:17.086Z,5.58
2019-04-14T22:57:45.773Z,5.57
2019-04-14T23:00:31.985Z,5.47
2019-04-14T23:03:07.763Z,5.44
2019-04-14T23:06:01.306Z,5.61
2019-04-14T23:08:35.490Z,5.68
2019-04-14T23:11:13.314Z,5.74
2019-04-14T23:13:50.790Z,5.74
2019-04-14T23:16:47.595Z,5.79
2019-04-14T23:19:22.490Z,5.78
2019-04-14T23:22:02.778Z,5.72
2019-04-14T23:24:35.020Z,5.72
2019-04-14T23:27:03.709Z,5.74
2019-04-14T23:29:32.395Z,5.69
2019-04-14T23:32:01.126Z,5.64
2019-04-14T23:34:29.804Z,5.51
2019-04-14T23:36:58.565Z,5.56
2019-04-14T23:39:27.310Z,5.55
2019-04-14T23:41:55.964Z,5.54
2019-04-14T23:44:24.645Z,5.50
2019-04-14T23:46:53.305Z,5.53
2019-04-14T23:49:22.043Z,5.53
2019-04-14T23:51:50.733Z,5.51
2019-04-14T23:54:19.396Z,5.60
2019-04-14T23:56:48.054Z,5.66
2019-04-14T23:59:17.225Z,5.71
